Time;durP1;ratioP1;P1;durP2;ratioP2;P2;SDS_P1;SDS_P2;PMS_P1;PMS_P2;Temp;Humidity;BMP_temperature;BMP_pressure;BME280_temperature;BME280_humidity;BME280_pressure;Samples;Min_cycle;Max_cycle;Signal;HPM_P1;HPM_P2
2022/12/15 00:39:34;;;;;;;39.58;17.85;;;;;;;-8.11;100.00;100235.31;2063612;28;39800;-63
2022/12/15 00:40:36;;;;;;;40.85;19.17;;;;;;;-8.10;100.00;100236.19;2066108;28;42111;-62
2022/12/15 00:41:37;;;;;;;38.92;19.23;;;;;;;-8.01;100.00;100238.28;2071976;28;40526;-62
2022/12/15 00:42:39;;;;;;;42.70;19.02;;;;;;;-8.05;100.00;100237.28;2071727;28;39306;-63
2022/12/15 00:43:44;;;;;;;36.90;17.67;;;;;;;-8.08;100.00;100232.81;2072618;28;36487;-61
2022/12/15 00:44:46;;;;;;;40.33;18.92;;;;;;;-8.11;100.00;100243.13;2062864;28;38589;-62
2022/12/15 00:47:08;;;;;;;33.63;17.42;;;;;;;-8.22;100.00;100241.75;2071788;28;36673;-62
2022/12/15 00:48:09;;;;;;;37.88;17.42;;;;;;;-8.25;100.00;100257.25;2072326;28;29915;-61
2022/12/15 01:20:17;;;;;;;36.88;17.38;;;;;;;-8.27;100.00;100285.72;2071283;28;40679;-62
2022/12/15 01:21:18;;;;;;;41.35;18.98;;;;;;;-8.23;100.00;100281.56;2071653;28;38816;-62
2022/12/15 01:22:24;;;;;;;43.20;18.42;;;;;;;-8.19;100.00;100285.16;2071745;28;38145;-63
2022/12/15 01:23:26;;;;;;;40.80;18.60;;;;;;;-8.13;100.00;100273.34;2071760;28;39109;-62
2022/12/15 01:24:31;;;;;;;43.92;19.45;;;;;;;-8.12;100.00;100272.50;2063403;28;20274;-62
2022/12/15 01:25:37;;;;;;;42.70;19.52;;;;;;;-8.14;100.00;100270.66;2063357;28;42186;-61
2022/12/15 01:26:38;;;;;;;41.75;19.50;;;;;;;-8.11;100.00;100278.56;2062577;28;37871;-62
2022/12/15 01:27:40;;;;;;;45.35;20.67;;;;;;;-8.11;100.00;100274.28;2063294;28;36565;-61
2022/12/15 01:28:42;;;;;;;42.47;20.30;;;;;;;-8.06;100.00;100283.16;2071883;28;20254;-62
2022/12/15 01:29:44;;;;;;;42.55;20.17;;;;;;;-8.11;100.00;100289.84;2096024;22;29766;-62
2022/12/15 01:30:49;;;;;;;45.47;19.25;;;;;;;-8.14;100.00;100284.53;2066737;28;20230;-63
2022/12/15 01:31:50;;;;;;;40.22;19.17;;;;;;;-8.20;100.00;100294.69;2063567;28;37274;-65
2022/12/15 01:32:52;;;;;;;39.50;19.05;;;;;;;-8.18;100.00;100292.13;2071315;28;40851;-65
2022/12/15 01:33:54;;;;;;;41.42;18.88;;;;;;;-8.25;100.00;100299.66;2071878;28;36992;-65
2022/12/15 01:34:56;;;;;;;42.17;19.80;;;;;;;-8.23;100.00;100291.94;2063935;28;20263;-65
2022/12/15 01:36:00;;;;;;;40.50;19.27;;;;;;;-8.24;100.00;100290.16;2062576;28;40318;-65
2022/12/15 01:37:01;;;;;;;36.53;18.33;;;;;;;-8.30;100.00;100290.78;2071413;28;36254;-65
2022/12/15 01:38:03;;;;;;;43.25;19.45;;;;;;;-8.30;100.00;100292.50;2071966;28;32484;-65
2022/12/15 01:39:05;;;;;;;40.70;19.10;;;;;;;-8.28;100.00;100296.06;2071679;28;37018;-65
2022/12/15 01:41:32;;;;;;;33.38;16.23;;;;;;;-8.29;100.00;100289.06;2062828;28;39181;-63
2022/12/15 01:42:34;;;;;;;36.58;17.45;;;;;;;-8.25;100.00;100301.38;2066252;28;37887;-65
2022/12/15 01:43:39;;;;;;;41.38;18.60;;;;;;;-8.29;100.00;100300.38;2072254;28;21039;-65
2022/12/15 01:44:43;;;;;;;38.55;18.58;;;;;;;-8.32;100.00;100291.56;2071669;28;38908;-65
2022/12/15 01:45:56;;;;;;;38.40;17.52;;;;;;;-8.27;100.00;100300.44;2055446;28;20215;-65
2022/12/15 01:46:58;;;;;;;36.55;17.08;;;;;;;-8.27;100.00;100287.44;2058520;28;39195;-63
2022/12/15 01:48:11;;;;;;;37.55;18.13;;;;;;;-8.22;100.00;100285.03;2063100;28;37444;-62
2022/12/15 01:49:28;;;;;;;35.42;17.92;;;;;;;-8.25;100.00;100284.09;2048971;28;20255;-63
2022/12/15 01:50:52;;;;;;;37.30;17.75;;;;;;;-8.25;100.00;100288.41;2063222;28;40416;-63
2022/12/15 01:52:05;;;;;;;39.20;18.23;;;;;;;-8.30;100.00;100282.13;2075261;28;20249;-63
2022/12/15 01:53:08;;;;;;;37.95;17.52;;;;;;;-8.28;100.00;100278.75;2079174;28;40500;-64
2022/12/15 01:54:18;;;;;;;39.75;18.27;;;;;;;-8.28;100.00;100277.88;2079847;28;39682;-64
2022/12/15 01:55:23;;;;;;;42.53;18.75;;;;;;;-8.28;100.00;100272.69;2080463;28;20230;-64
2022/12/15 01:56:31;;;;;;;40.33;18.92;;;;;;;-8.17;100.00;100270.53;2079773;28;40778;-63
2022/12/15 01:57:37;;;;;;;45.58;19.27;;;;;;;-8.13;100.00;100281.13;2080017;28;20262;-64
2022/12/15 01:58:44;;;;;;;47.60;18.92;;;;;;;-8.20;100.00;100276.50;2079786;28;39244;-63
2022/12/15 01:59:52;;;;;;;41.13;18.95;;;;;;;-8.12;100.00;100280.28;2071100;28;40916;-64
2022/12/15 02:00:54;;;;;;;38.42;19.13;;;;;;;-8.13;100.00;100275.03;2075815;28;32978;-63
2022/12/15 02:01:56;;;;;;;47.17;21.08;;;;;;;-8.04;100.00;100275.41;2070451;28;37527;-64
2022/12/15 02:03:00;;;;;;;48.08;20.15;;;;;;;-7.99;100.00;100273.00;2071145;28;39090;-64
2022/12/15 02:04:02;;;;;;;45.22;20.50;;;;;;;-8.07;100.00;100273.56;2080266;28;20236;-65
2022/12/15 02:05:06;;;;;;;41.30;20.58;;;;;;;-8.03;100.00;100281.50;2079931;28;41819;-63
2022/12/15 02:06:11;;;;;;;43.42;20.17;;;;;;;-8.11;100.00;100282.06;2079033;28;36434;-63
2022/12/15 02:07:15;;;;;;;43.83;20.38;;;;;;;-8.08;100.00;100282.16;2070501;28;39356;-63
2022/12/15 02:08:17;;;;;;;41.72;19.40;;;;;;;-8.08;100.00;100282.16;2071787;28;39375;-63
2022/12/15 02:09:23;;;;;;;38.53;19.25;;;;;;;-8.12;100.00;100293.25;2079930;28;36327;-63
2022/12/15 02:10:36;;;;;;;41.03;19.67;;;;;;;-8.10;100.00;100295.94;2079296;28;43255;-63
2022/12/15 02:11:50;;;;;;;43.92;19.85;;;;;;;-8.07;100.00;100296.94;2079612;28;40789;-64
2022/12/15 02:12:55;;;;;;;40.25;20.17;;;;;;;-8.14;100.00;100302.72;2079565;28;37072;-63
2022/12/15 02:14:09;;;;;;;41.03;18.85;;;;;;;-8.10;100.00;100302.00;2079433;28;39512;-63
2022/12/15 02:15:24;;;;;;;42.60;19.13;;;;;;;-8.11;100.00;100299.34;2070980;28;36753;-63
2022/12/15 02:17:15;;;;;;;41.95;19.73;;;;;;;-8.07;100.00;100296.94;2074093;28;39581;-63
2022/12/15 02:18:19;;;;;;;39.10;18.02;;;;;;;-8.02;100.00;100297.16;2070292;28;38420;-64
2022/12/15 02:19:55;;;;;;;42.05;18.20;;;;;;;-7.99;100.00;100291.19;2070613;28;42300;-63
2022/12/15 02:21:17;;;;;;;41.50;18.13;;;;;;;-8.05;100.00;100291.81;2075427;28;38922;-63
2022/12/15 02:22:44;;;;;;;39.08;17.83;;;;;;;-8.09;100.00;100303.78;2079457;28;38814;-63
2022/12/15 02:24:30;;;;;;;36.30;16.92;;;;;;;-8.05;100.00;100302.22;2079536;28;42297;-63
2022/12/15 02:26:22;;;;;;;37.97;17.90;;;;;;;-8.13;100.00;100311.38;2080137;28;36217;-64
2022/12/15 02:27:45;;;;;;;34.95;16.02;;;;;;;-8.16;100.00;100306.97;2038154;29;38051;-63
2022/12/15 02:29:01;;;;;;;38.45;17.90;;;;;;;-8.20;100.00;100310.25;2057490;28;39926;-63
2022/12/15 02:32:26;;;;;;;40.40;17.10;;;;;;;-8.07;100.00;100307.34;2079416;28;35578;-63
2022/12/15 02:33:31;;;;;;;39.55;18.30;;;;;;;-8.10;100.00;100314.13;2070587;28;40658;-63
2022/12/15 02:35:01;;;;;;;42.20;18.15;;;;;;;-8.12;100.00;100321.84;2064868;28;20119;-63
2022/12/15 02:36:31;;;;;;;36.33;16.38;;;;;;;-8.12;100.00;100311.44;2062877;28;37884;-63
2022/12/15 02:37:39;;;;;;;32.03;18.00;;;;;;;-8.13;100.00;100322.69;2060971;28;38756;-63
2022/12/15 02:38:40;;;;;;;41.35;18.33;;;;;;;-8.12;100.00;100313.16;2049492;28;39655;-64
2022/12/15 02:39:42;;;;;;;39.97;18.02;;;;;;;-8.11;100.00;100325.31;2055165;28;37645;-63
2022/12/15 02:40:44;;;;;;;40.67;19.02;;;;;;;-8.10;100.00;100325.38;2071537;28;38642;-63
2022/12/15 02:41:47;;;;;;;46.20;20.00;;;;;;;-8.12;100.00;100333.94;2071271;28;38834;-62
2022/12/15 02:42:54;;;;;;;40.90;19.73;;;;;;;-8.07;100.00;100330.72;2071955;28;20869;-64
2022/12/15 02:43:56;;;;;;;38.95;19.05;;;;;;;-7.99;100.00;100319.75;2071269;28;40963;-63
2022/12/15 02:45:11;;;;;;;40.60;19.10;;;;;;;-7.96;100.00;100314.69;2062580;28;37396;-63
2022/12/15 02:46:51;;;;;;;40.30;19.13;;;;;;;-7.98;100.00;100312.03;2064843;28;37473;-63
2022/12/15 02:48:17;;;;;;;39.35;18.33;;;;;;;-7.95;100.00;100324.25;2061987;28;39246;-63
2022/12/15 02:49:42;;;;;;;41.53;18.50;;;;;;;-7.95;100.00;100317.34;2070579;28;41072;-63
2022/12/15 02:51:26;;;;;;;39.83;17.83;;;;;;;-7.94;100.00;100319.13;2070889;28;40159;-63
2022/12/15 02:52:40;;;;;;;36.92;17.33;;;;;;;-8.01;100.00;100317.09;2070499;28;42683;-63
2022/12/15 02:54:15;;;;;;;40.17;18.67;;;;;;;-7.96;100.00;100319.88;2070988;28;37078;-63
2022/12/15 02:55:33;;;;;;;42.28;18.15;;;;;;;-7.93;100.00;100320.00;2070603;28;41456;-63
2022/12/15 02:57:17;;;;;;;47.10;18.58;;;;;;;-7.99;100.00;100319.75;2071276;28;39489;-63
2022/12/15 02:58:45;;;;;;;40.83;18.73;;;;;;;-7.99;100.00;100319.75;2070774;28;20257;-63
2022/12/15 03:00:02;;;;;;;42.42;18.25;;;;;;;-7.94;100.00;100323.44;2062329;28;40792;-63
2022/12/15 03:01:50;;;;;;;40.70;18.35;;;;;;;-8.06;100.00;100337.69;2059445;28;20270;-63
2022/12/15 03:02:54;;;;;;;45.22;18.42;;;;;;;-8.10;100.00;100338.38;2069794;28;38805;-63
2022/12/15 03:03:58;;;;;;;38.65;18.20;;;;;;;-8.10;100.00;100333.16;2071040;28;38254;-63
2022/12/15 03:05:00;;;;;;;39.70;18.05;;;;;;;-8.16;100.00;100330.31;2070602;28;42615;-63
2022/12/15 03:06:05;;;;;;;39.10;19.10;;;;;;;-8.13;100.00;100335.66;2071178;28;20254;-64
2022/12/15 03:07:09;;;;;;;42.90;19.60;;;;;;;-8.08;100.00;100328.03;2073358;28;20241;-63
2022/12/15 03:08:11;;;;;;;40.90;19.88;;;;;;;-8.12;100.00;100327.03;2069591;28;42782;-63
2022/12/15 03:09:12;;;;;;;40.58;19.00;;;;;;;-8.13;100.00;100333.06;2063127;28;22789;-63
2022/12/15 03:10:17;;;;;;;39.45;18.05;;;;;;;-8.20;100.00;100333.63;2071354;28;25748;-63
2022/12/15 03:11:19;;;;;;;40.40;19.15;;;;;;;-8.19;100.00;100339.69;2070410;28;39140;-64
2022/12/15 03:12:21;;;;;;;39.67;18.27;;;;;;;-8.22;100.00;100336.97;2070538;28;38476;-64
2022/12/15 03:13:24;;;;;;;39.47;17.85;;;;;;;-8.20;100.00;100325.84;2071369;28;31585;-64
2022/12/15 03:14:29;;;;;;;39.90;17.73;;;;;;;-8.20;100.00;100331.03;2070329;28;37828;-64
2022/12/15 03:15:31;;;;;;;36.60;18.05;;;;;;;-8.15;100.00;100332.09;2070482;28;38167;-64
2022/12/15 03:16:36;;;;;;;39.65;17.80;;;;;;;-8.21;100.00;100331.84;2070934;28;43174;-64
2022/12/15 03:17:38;;;;;;;39.15;18.70;;;;;;;-8.17;100.00;100320.75;2071627;28;20250;-64
2022/12/15 03:18:39;;;;;;;40.05;18.73;;;;;;;-8.20;100.00;100322.31;2070438;28;40822;-64
2022/12/15 03:19:43;;;;;;;38.92;19.00;;;;;;;-8.17;100.00;100323.34;2071594;28;35240;-64
2022/12/15 03:20:48;;;;;;;38.40;19.55;;;;;;;-8.15;100.00;100326.00;2078220;28;39266;-64
2022/12/15 03:21:49;;;;;;;39.67;17.38;;;;;;;-8.19;100.00;100318.94;2079279;28;33536;-64
2022/12/15 03:22:51;;;;;;;36.55;18.20;;;;;;;-8.21;100.00;100323.16;2079019;28;40139;-64
2022/12/15 03:23:55;;;;;;;35.38;17.08;;;;;;;-8.23;100.00;100317.03;2079085;28;36320;-64
2022/12/15 03:24:57;;;;;;;36.42;17.75;;;;;;;-8.17;100.00;100328.53;2079795;28;20233;-64
2022/12/15 03:25:58;;;;;;;37.55;18.05;;;;;;;-8.10;100.00;100322.78;2079631;28;20241;-64
2022/12/15 03:27:00;;;;;;;40.58;18.88;;;;;;;-8.14;100.00;100320.00;2079916;28;39464;-64
2022/12/15 03:28:02;;;;;;;37.80;18.58;;;;;;;-8.16;100.00;100330.31;2080916;28;35226;-64
2022/12/15 03:29:03;;;;;;;35.38;18.38;;;;;;;-8.13;100.00;100329.56;2071387;28;39058;-64
2022/12/15 03:30:06;;;;;;;39.90;18.67;;;;;;;-8.14;100.00;100331.28;2071994;28;39534;-63
2022/12/15 03:31:08;;;;;;;37.20;18.15;;;;;;;-8.16;100.00;100326.84;2080304;28;36926;-64
2022/12/15 03:32:10;;;;;;;37.78;17.95;;;;;;;-8.17;100.00;100330.25;2080839;28;35484;-63
2022/12/15 03:33:11;;;;;;;41.88;19.25;;;;;;;-8.13;100.00;100327.88;2071454;28;39759;-64
2022/12/15 03:34:13;;;;;;;44.00;17.98;;;;;;;-8.10;100.00;100330.56;2072798;28;20250;-64
2022/12/15 03:35:15;;;;;;;38.45;18.65;;;;;;;-8.09;100.00;100323.69;2080596;28;40467;-64
2022/12/15 03:36:17;;;;;;;37.95;19.23;;;;;;;-8.05;100.00;100325.59;2080822;28;30890;-64
2022/12/15 03:37:18;;;;;;;35.67;18.67;;;;;;;-8.09;100.00;100329.75;2080893;28;40284;-64
2022/12/15 03:38:20;;;;;;;38.70;19.15;;;;;;;-7.99;100.00;100319.75;2080732;28;40400;-63
2022/12/15 03:39:24;;;;;;;45.58;19.67;;;;;;;-8.10;100.00;100320.19;2080343;28;36465;-64
2022/12/15 03:40:26;;;;;;;36.40;17.38;;;;;;;-8.00;100.00;100323.16;2080370;28;38716;-63
2022/12/15 03:41:27;;;;;;;39.13;18.83;;;;;;;-8.04;100.00;100336.84;2080287;28;39995;-64
2022/12/15 03:42:47;;;;;;;37.33;18.77;;;;;;;-8.12;100.00;100332.22;2080004;28;37732;-64
2022/12/15 03:43:49;;;;;;;35.38;16.73;;;;;;;-8.13;100.00;100332.16;2080131;28;42054;-64
2022/12/15 03:44:50;;;;;;;40.90;17.98;;;;;;;-8.12;100.00;100332.22;2080756;28;39582;-64
2022/12/15 03:45:52;;;;;;;39.25;19.00;;;;;;;-8.10;100.00;100335.75;2080274;28;37204;-64
2022/12/15 03:46:54;;;;;;;37.15;19.27;;;;;;;-8.16;100.00;100332.03;2071671;28;37625;-64
2022/12/15 03:48:02;;;;;;;38.28;18.48;;;;;;;-8.15;100.00;100333.81;2073406;28;20245;-64
2022/12/15 03:49:03;;;;;;;35.67;18.08;;;;;;;-8.19;100.00;100332.78;2071814;28;39567;-64
2022/12/15 03:50:08;;;;;;;37.35;17.73;;;;;;;-8.14;100.00;100335.59;2072701;28;20222;-64
2022/12/15 03:51:10;;;;;;;36.55;18.45;;;;;;;-8.11;100.00;100323.63;2072178;28;20262;-64
2022/12/15 03:52:12;;;;;;;36.88;17.83;;;;;;;-8.05;100.00;100320.38;2071772;28;40355;-64
2022/12/15 03:53:13;;;;;;;40.35;19.05;;;;;;;-8.10;100.00;100327.97;2080567;28;41282;-64
2022/12/15 03:54:15;;;;;;;43.17;18.70;;;;;;;-8.08;100.00;100318.53;2081246;28;20276;-63
2022/12/15 03:55:17;;;;;;;40.95;19.33;;;;;;;-8.05;100.00;100312.59;2080408;28;42389;-64
2022/12/15 03:56:20;;;;;;;39.25;17.90;;;;;;;-8.14;100.00;100330.41;2080090;28;38941;-64
2022/12/15 03:57:22;;;;;;;34.70;17.65;;;;;;;-8.08;100.00;100326.31;2080782;28;37325;-64
2022/12/15 03:58:24;;;;;;;35.55;17.27;;;;;;;-8.17;100.00;100328.53;2079976;28;40222;-63
2022/12/15 03:59:26;;;;;;;34.35;18.10;;;;;;;-8.11;100.00;100330.50;2080670;28;39745;-63
2022/12/15 04:00:28;;;;;;;36.30;17.90;;;;;;;-8.14;100.00;100331.28;2079925;28;43746;-64
2022/12/15 04:01:33;;;;;;;36.15;17.65;;;;;;;-8.14;100.00;100333.88;2080558;28;39265;-64
2022/12/15 04:02:35;;;;;;;34.25;17.38;;;;;;;-8.15;100.00;100334.69;2080348;28;37794;-64
2022/12/15 04:03:37;;;;;;;33.83;17.95;;;;;;;-8.19;100.00;100337.97;2080867;28;35768;-64
2022/12/15 04:04:38;;;;;;;35.15;17.55;;;;;;;-8.20;100.00;100331.03;2080568;28;20071;-64
2022/12/15 04:05:40;;;;;;;37.50;17.88;;;;;;;-8.10;100.00;100330.56;2080531;28;41377;-64
2022/12/15 04:06:42;;;;;;;43.13;19.00;;;;;;;-8.13;100.00;100335.66;2079895;28;39517;-63
2022/12/15 04:07:44;;;;;;;37.75;18.35;;;;;;;-8.17;100.00;100336.34;2080470;28;31569;-64
2022/12/15 04:08:45;;;;;;;39.85;18.50;;;;;;;-8.17;100.00;100333.72;2080277;28;39301;-64
2022/12/15 04:09:50;;;;;;;40.72;18.40;;;;;;;-8.14;100.00;100336.47;2080462;28;38226;-64
2022/12/15 04:10:51;;;;;;;42.45;19.00;;;;;;;-8.18;100.00;100331.97;2080229;28;36703;-64
2022/12/15 04:11:53;;;;;;;31.45;16.02;;;;;;;-8.21;100.00;100339.63;2080216;28;39960;-64
2022/12/15 04:13:01;;;;;;;36.22;18.33;;;;;;;-8.12;100.00;100341.72;2080906;28;21515;-64
2022/12/15 04:14:02;;;;;;;42.20;18.48;;;;;;;-8.05;100.00;100341.16;2071628;28;41661;-64
2022/12/15 04:15:08;;;;;;;37.15;18.10;;;;;;;-8.09;100.00;100334.09;2071953;28;42779;-64
2022/12/15 04:16:10;;;;;;;34.92;17.50;;;;;;;-8.14;100.00;100341.66;2080877;28;34607;-64
2022/12/15 04:17:16;;;;;;;36.95;17.25;;;;;;;-8.10;100.00;100340.97;2080169;28;41131;-64
2022/12/15 04:18:18;;;;;;;34.30;18.17;;;;;;;-8.08;100.00;100354.03;2080138;28;38582;-64
2022/12/15 04:20:40;;;;;;;;;;;;;;;-8.14;100.00;100345.97;2079974;28;41310;-64
2022/12/15 04:21:42;;;;;;;37.05;16.67;;;;;;;-8.11;100.00;100349.59;2079970;28;38030;-65
2022/12/15 04:22:47;;;;;;;35.75;16.83;;;;;;;-8.10;100.00;100353.94;2080216;28;38956;-64
2022/12/15 05:32:40;;;;;;;27.92;11.75;;;;;;;-8.15;100.00;100363.25;2079711;28;46440;-64
2022/12/15 05:33:42;;;;;;;35.95;17.38;;;;;;;-8.16;100.00;100369.28;2080348;28;23180;-64
2022/12/15 05:34:44;;;;;;;38.85;17.60;;;;;;;-8.12;100.00;100367.69;2079269;28;40426;-64
2022/12/15 05:35:45;;;;;;;36.95;18.83;;;;;;;-8.15;100.00;100375.34;2080005;28;40640;-64
2022/12/15 05:36:48;;;;;;;37.53;18.50;;;;;;;-8.09;100.00;100373.91;2080156;28;20261;-64
2022/12/15 05:37:49;;;;;;;43.38;19.75;;;;;;;-8.08;100.00;100372.19;2079463;28;42363;-64
2022/12/15 05:38:52;;;;;;;39.15;18.25;;;;;;;-8.12;100.00;100371.19;2079797;28;34875;-64
2022/12/15 05:39:53;;;;;;;47.00;20.60;;;;;;;-8.01;100.00;100374.22;2070671;28;34580;-64
2022/12/15 05:40:59;;;;;;;42.28;19.95;;;;;;;-8.03;100.00;100367.22;2070822;28;40578;-64
2022/12/15 05:42:01;;;;;;;39.60;19.95;;;;;;;-8.01;100.00;100368.16;2071078;28;35768;-64
2022/12/15 05:43:03;;;;;;;43.92;21.00;;;;;;;-8.06;100.00;100360.16;2071204;28;40625;-64
2022/12/15 05:44:05;;;;;;;40.28;20.38;;;;;;;-8.05;100.00;100369.75;2079794;28;39100;-63
2022/12/15 05:45:08;;;;;;;40.42;19.52;;;;;;;-8.02;100.00;100371.56;2079685;28;37600;-64
2022/12/15 05:46:11;;;;;;;36.90;18.95;;;;;;;-7.99;100.00;100380.38;2079840;28;40125;-64
2022/12/15 05:47:13;;;;;;;36.33;19.05;;;;;;;-7.97;100.00;100375.25;2079521;28;38064;-64
2022/12/15 05:48:14;;;;;;;41.03;20.40;;;;;;;-7.99;100.00;100382.97;2079630;28;37668;-64
2022/12/15 05:49:18;;;;;;;34.60;18.08;;;;;;;-7.94;100.00;100381.47;2080598;28;20327;-64
2022/12/15 05:50:23;;;;;;;40.65;19.88;;;;;;;-8.01;100.00;100381.16;2080140;28;20253;-64
2022/12/15 05:51:27;;;;;;;32.85;18.48;;;;;;;-8.01;100.00;100383.75;2079482;28;41335;-64
2022/12/15 05:52:29;;;;;;;40.83;20.13;;;;;;;-7.97;100.00;100385.63;2079500;28;34654;-64
2022/12/15 05:53:30;;;;;;;45.92;20.05;;;;;;;-7.95;100.00;100386.59;2070866;28;37909;-64
2022/12/15 05:54:33;;;;;;;36.40;17.92;;;;;;;-7.98;100.00;100392.56;2062730;28;42674;-64
2022/12/15 05:55:34;;;;;;;38.47;19.30;;;;;;;-7.95;100.00;100389.19;2071514;28;20246;-64
2022/12/15 05:56:36;;;;;;;42.60;19.55;;;;;;;-8.02;100.00;100387.16;2079528;28;39556;-64
2022/12/15 05:57:41;;;;;;;40.88;18.55;;;;;;;-7.99;100.00;100374.31;2080370;28;20048;-64
2022/12/15 05:58:43;;;;;;;41.60;19.88;;;;;;;-7.95;100.00;100389.19;2079591;28;37420;-64
2022/12/15 05:59:46;;;;;;;41.65;19.45;;;;;;;-7.88;100.00;100381.75;2079512;28;38512;-64
2022/12/15 06:00:47;;;;;;;36.42;18.92;;;;;;;-7.93;100.00;100384.94;2080239;28;21048;-64
2022/12/15 06:01:49;;;;;;;41.28;18.88;;;;;;;-7.86;100.00;100381.78;2070085;28;40189;-64
2022/12/15 06:02:51;;;;;;;41.55;19.08;;;;;;;-7.80;100.00;100381.19;2071963;28;20042;-64
2022/12/15 06:03:53;;;;;;;41.13;19.55;;;;;;;-7.77;100.00;100374.41;2080180;28;20257;-64
2022/12/15 06:04:57;;;;;;;40.92;19.75;;;;;;;-7.82;100.00;100386.31;2080516;28;21015;-64
2022/12/15 06:06:01;;;;;;;44.63;20.33;;;;;;;-7.68;100.00;100382.56;2079338;28;37488;-64
2022/12/15 06:07:03;;;;;;;35.10;17.52;;;;;;;-7.75;100.00;100387.41;2079888;28;20225;-64
2022/12/15 06:08:04;;;;;;;37.33;18.88;;;;;;;-7.79;100.00;100385.53;2079609;28;36450;-64
2022/12/15 06:09:06;;;;;;;39.55;20.08;;;;;;;-7.72;100.00;100385.84;2079793;28;37885;-64
2022/12/15 06:10:09;;;;;;;41.08;20.23;;;;;;;-7.71;100.00;100379.81;2070460;28;37473;-64
2022/12/15 06:11:14;;;;;;;38.08;18.02;;;;;;;-7.67;100.00;100391.25;2071581;28;41980;-64
2022/12/15 06:12:15;;;;;;;34.80;18.70;;;;;;;-7.68;100.00;100390.38;2080299;28;21095;-63
2022/12/15 06:13:17;;;;;;;37.47;19.08;;;;;;;-7.62;100.00;100387.13;2079578;28;38847;-64
2022/12/15 06:14:19;;;;;;;39.53;18.77;;;;;;;-7.71;100.00;100397.16;2079719;28;37629;-63
2022/12/15 06:15:20;;;;;;;36.05;18.88;;;;;;;-7.56;100.00;100394.28;2079351;28;40105;-64
2022/12/15 06:16:26;;;;;;;41.45;18.90;;;;;;;-7.69;100.00;100388.56;2079454;28;37780;-63
2022/12/15 06:17:28;;;;;;;42.70;19.02;;;;;;;-7.62;100.00;100386.25;2079510;28;38868;-64
2022/12/15 06:18:37;;;;;;;41.47;19.95;;;;;;;-7.65;100.00;100386.09;2079019;28;39310;-64
2022/12/15 06:19:38;;;;;;;39.95;19.25;;;;;;;-7.54;100.00;100385.69;2079372;28;41122;-64
2022/12/15 06:20:40;;;;;;;39.88;19.92;;;;;;;-7.55;100.00;100375.28;2079195;28;40048;-64
2022/12/15 06:21:42;;;;;;;36.70;18.60;;;;;;;-7.57;100.00;100382.09;2078852;28;37204;-64
2022/12/15 06:22:46;;;;;;;37.97;19.40;;;;;;;-7.48;100.00;100374.69;2078783;28;38107;-64
2022/12/15 06:23:52;;;;;;;41.20;18.90;;;;;;;-7.47;100.00;100370.38;2080365;28;20493;-64
2022/12/15 06:24:53;;;;;;;41.15;18.95;;;;;;;-7.43;100.00;100370.53;2079432;28;35740;-64
2022/12/15 06:25:55;;;;;;;42.78;19.67;;;;;;;-7.36;100.00;100376.88;2079246;28;37303;-64
2022/12/15 06:26:58;;;;;;;48.10;20.63;;;;;;;-7.35;100.00;100382.16;2070811;28;35036;-64
2022/12/15 06:27:59;;;;;;;44.67;20.38;;;;;;;-7.29;100.00;100389.31;2070618;28;39316;-64
2022/12/15 06:29:07;;;;;;;41.00;19.52;;;;;;;-7.32;100.00;100386.56;2079582;28;35934;-64
2022/12/15 06:30:09;;;;;;;39.83;19.35;;;;;;;-7.34;100.00;100389.13;2070643;28;39210;-64
2022/12/15 06:31:16;;;;;;;40.33;19.67;;;;;;;-7.26;100.00;100394.63;2071642;28;40695;-64
2022/12/15 06:32:20;;;;;;;42.35;19.70;;;;;;;-7.39;100.00;100393.25;2070431;28;37439;-64
2022/12/15 06:33:22;;;;;;;41.10;20.40;;;;;;;-7.35;100.00;100400.34;2071235;28;37959;-64
2022/12/15 06:34:23;;;;;;;38.20;19.80;;;;;;;-7.43;100.00;100400.84;2070409;28;40043;-64
2022/12/15 06:35:25;;;;;;;39.65;19.88;;;;;;;-7.45;100.00;100393.00;2071269;28;38148;-64
2022/12/15 06:36:29;;;;;;;40.00;19.10;;;;;;;-7.47;100.00;100398.97;2079361;28;41823;-64
2022/12/15 06:37:31;;;;;;;38.80;19.75;;;;;;;-7.36;100.00;100398.56;2079265;28;40185;-64
2022/12/15 06:38:33;;;;;;;40.90;19.30;;;;;;;-7.40;100.00;100395.78;2079282;28;39096;-64
2022/12/15 06:39:35;;;;;;;40.53;19.33;;;;;;;-7.41;100.00;100400.13;2070577;28;37979;-64
2022/12/15 06:40:38;;;;;;;40.65;19.98;;;;;;;-7.44;100.00;100394.78;2071008;28;39861;-64
2022/12/15 06:41:41;;;;;;;45.03;19.90;;;;;;;-7.40;100.00;100403.59;2079317;28;37430;-64
2022/12/15 06:42:42;;;;;;;41.50;19.70;;;;;;;-7.40;100.00;100412.28;2079000;28;40068;-64
2022/12/15 06:43:50;;;;;;;40.83;19.80;;;;;;;-7.40;100.00;100408.78;2080273;28;20261;-64
2022/12/15 06:44:52;;;;;;;40.10;19.42;;;;;;;-7.41;100.00;100410.50;2070523;28;36444;-64
2022/12/15 06:45:54;;;;;;;40.17;19.23;;;;;;;-7.37;100.00;100417.59;2071010;28;37800;-64
2022/12/15 06:46:56;;;;;;;38.47;19.00;;;;;;;-7.37;100.00;100416.72;2079220;28;37571;-64
2022/12/15 06:47:58;;;;;;;38.33;19.58;;;;;;;-7.33;100.00;100411.69;2079804;28;38260;-64
2022/12/15 06:49:02;;;;;;;37.38;19.38;;;;;;;-7.35;100.00;100420.28;2079123;28;40552;-64
2022/12/15 06:50:07;;;;;;;38.92;19.50;;;;;;;-7.34;100.00;100425.53;2079509;28;39122;-64
2022/12/15 06:51:09;;;;;;;35.53;19.08;;;;;;;-7.31;100.00;100428.25;2079260;28;37555;-64
2022/12/15 06:52:20;;;;;;;39.90;19.23;;;;;;;-7.18;100.00;100423.53;2080032;28;20238;-64
2022/12/15 06:53:23;;;;;;;37.35;20.20;;;;;;;-7.28;100.00;100422.28;2078879;28;41708;-64
2022/12/15 06:54:25;;;;;;;36.78;19.30;;;;;;;-7.22;100.00;100417.31;2070358;28;38117;-64
2022/12/15 06:55:27;;;;;;;36.42;19.63;;;;;;;-7.14;100.00;100426.34;2071329;28;21146;-64
2022/12/15 06:56:32;;;;;;;37.58;19.58;;;;;;;-7.18;100.00;100428.75;2080093;28;39009;-64
2022/12/15 06:57:37;;;;;;;41.03;19.75;;;;;;;-7.17;100.00;100426.22;2079265;28;37143;-64
2022/12/15 06:58:41;;;;;;;39.53;20.48;;;;;;;-7.13;100.00;100425.50;2079261;28;41722;-64
2022/12/15 06:59:43;;;;;;;42.35;19.90;;;;;;;-7.06;100.00;100434.44;2079264;28;36868;-64
2022/12/15 07:00:45;;;;;;;36.72;20.10;;;;;;;-7.08;100.00;100440.41;2079151;28;41024;-64
2022/12/15 07:01:47;;;;;;;41.78;19.17;;;;;;;-7.08;100.00;100432.63;2070867;28;36394;-64
2022/12/15 07:02:49;;;;;;;42.78;20.60;;;;;;;-7.11;100.00;100430.75;2072226;28;37705;-64
2022/12/15 07:03:52;;;;;;;38.83;19.85;;;;;;;-7.08;100.00;100438.69;2080706;28;40382;-64
2022/12/15 07:04:54;;;;;;;40.17;20.13;;;;;;;-7.04;100.00;100429.31;2081647;28;20030;-64
2022/12/15 07:06:05;;;;;;;45.10;20.48;;;;;;;-7.01;100.00;100435.50;2079961;28;39614;-65
2022/12/15 07:07:09;;;;;;;38.13;18.77;;;;;;;-6.98;100.00;100435.66;2071992;28;38188;-64
2022/12/15 07:08:14;;;;;;;40.97;20.00;;;;;;;-7.06;100.00;100438.75;2073007;28;31358;-64
2022/12/15 07:09:16;;;;;;;35.95;19.35;;;;;;;-7.06;100.00;100441.38;2081090;28;39924;-64
2022/12/15 07:10:18;;;;;;;38.15;19.40;;;;;;;-7.03;100.00;100438.88;2081232;28;20042;-64
2022/12/15 07:11:21;;;;;;;38.17;19.42;;;;;;;-7.03;100.00;100444.97;2080650;28;42901;-64
2022/12/15 07:12:23;;;;;;;39.20;18.23;;;;;;;-6.98;100.00;100440.84;2080073;28;39002;-64
2022/12/15 07:13:25;;;;;;;40.42;19.95;;;;;;;-6.99;100.00;100438.19;2073985;28;20269;-64
2022/12/15 07:14:27;;;;;;;36.78;19.52;;;;;;;-7.00;100.00;100439.91;2072112;28;26396;-64
2022/12/15 07:15:28;;;;;;;41.42;19.85;;;;;;;-6.88;100.00;100443.81;2071416;28;38974;-64
2022/12/15 07:16:30;;;;;;;35.63;19.73;;;;;;;-6.84;100.00;100451.78;2071700;28;35435;-63
2022/12/15 07:17:34;;;;;;;42.30;19.95;;;;;;;-6.83;100.00;100458.78;2072007;28;40824;-64
2022/12/15 07:18:36;;;;;;;36.45;19.60;;;;;;;-6.76;100.00;100466.00;2071690;28;37376;-64
2022/12/15 07:19:37;;;;;;;40.88;19.60;;;;;;;-6.74;100.00;100463.44;2072225;28;39121;-63
2022/12/15 07:20:46;;;;;;;39.72;20.77;;;;;;;-6.67;100.00;100457.66;2071484;28;35820;-64